SANR

Termas De Rio Ho Airport

Termas De Rio Ho, Argentina
TAF SANR 242300Z 2500/2524 09010KT 9999 SCT030 BKN040 TX30/2519Z TN20/2510Z
Issued Valid From Valid To
Sep-24 @ 23:00 UTC
(2 hours ago)
Sep-25 @ 00:00 UTC
(an hour ago)
Sep-26 @ 00:00 UTC
(in 23 hours)
Sep-25 @ 00:00 to Sep-26 @ 00:00
TAF SANR 242300Z 2500/2524 09010KT 9999 SCT030 BKN040 TX30/2519Z TN20/2510Z
Wind Visibility Clouds
90° at 10 knots 10,000+ meters
  • Scattered at 3,000' AGL
  • Broken at 4,000' AGL
TAF SANR 242300Z 2500/2524 09010KT 9999 SCT030 BKN040 TX30/2519Z TN20/2510Z
Issued Sep-24 @ 23:00 UTC
(2 hours ago)
Valid From Sep-25 @ 00:00 UTC
(an hour ago)
Valid To Sep-26 @ 00:00 UTC
(in 23 hours)
Sep-25 @ 00:00 - Sep-26 @ 00:00
Wind Visibility
90° at 10 knots 10,000+ meters
Clouds
  • Scattered at 3,000' AGL
  • Broken at 4,000' AGL